sensor_id;sensor_type;location;lat;lon;timestamp;P1;durP1;ratioP1;P2;durP2;ratioP2
25838;SDS011;13669;50.186;27.062;2022-08-19T00:01:54;15.98;;;6.45;;
25838;SDS011;13669;50.186;27.062;2022-08-19T00:04:27;12.80;;;6.38;;
25838;SDS011;13669;50.186;27.062;2022-08-19T00:06:57;9.57;;;6.32;;
25838;SDS011;13669;50.186;27.062;2022-08-19T00:09:25;12.05;;;6.65;;
25838;SDS011;13669;50.186;27.062;2022-08-19T00:11:53;10.43;;;6.57;;
25838;SDS011;13669;50.186;27.062;2022-08-19T00:14:23;11.18;;;6.60;;
25838;SDS011;13669;50.186;27.062;2022-08-19T00:16:52;9.88;;;6.55;;
25838;SDS011;13669;50.186;27.062;2022-08-19T00:19:21;12.35;;;7.25;;
25838;SDS011;13669;50.186;27.062;2022-08-19T00:21:49;9.77;;;6.47;;
25838;SDS011;13669;50.186;27.062;2022-08-19T00:24:18;10.55;;;6.60;;
25838;SDS011;13669;50.186;27.062;2022-08-19T00:26:46;12.85;;;5.85;;
25838;SDS011;13669;50.186;27.062;2022-08-19T00:29:15;10.10;;;6.20;;
25838;SDS011;13669;50.186;27.062;2022-08-19T00:31:44;10.30;;;6.90;;
25838;SDS011;13669;50.186;27.062;2022-08-19T00:34:12;10.77;;;6.65;;
25838;SDS011;13669;50.186;27.062;2022-08-19T00:36:41;10.45;;;5.93;;
25838;SDS011;13669;50.186;27.062;2022-08-19T00:39:09;9.55;;;6.28;;
25838;SDS011;13669;50.186;27.062;2022-08-19T00:41:38;10.45;;;6.13;;
25838;SDS011;13669;50.186;27.062;2022-08-19T00:44:08;9.30;;;6.40;;
25838;SDS011;13669;50.186;27.062;2022-08-19T00:46:42;9.80;;;6.40;;
25838;SDS011;13669;50.186;27.062;2022-08-19T00:51:59;9.82;;;6.38;;
25838;SDS011;13669;50.186;27.062;2022-08-19T00:54:29;10.05;;;6.50;;
25838;SDS011;13669;50.186;27.062;2022-08-19T00:56:58;11.43;;;7.10;;
25838;SDS011;13669;50.186;27.062;2022-08-19T00:59:28;9.02;;;6.43;;
25838;SDS011;13669;50.186;27.062;2022-08-19T01:02:16;9.45;;;6.88;;
25838;SDS011;13669;50.186;27.062;2022-08-19T01:04:43;12.32;;;6.55;;
25838;SDS011;13669;50.186;27.062;2022-08-19T01:07:11;10.07;;;7.18;;
25838;SDS011;13669;50.186;27.062;2022-08-19T01:09:43;9.55;;;6.78;;
25838;SDS011;13669;50.186;27.062;2022-08-19T01:12:10;15.68;;;7.40;;
25838;SDS011;13669;50.186;27.062;2022-08-19T01:14:38;10.32;;;7.30;;
25838;SDS011;13669;50.186;27.062;2022-08-19T01:17:07;12.68;;;7.05;;
25838;SDS011;13669;50.186;27.062;2022-08-19T01:19:37;11.07;;;6.82;;
25838;SDS011;13669;50.186;27.062;2022-08-19T01:22:25;16.10;;;7.70;;
25838;SDS011;13669;50.186;27.062;2022-08-19T01:25:14;12.63;;;7.05;;
25838;SDS011;13669;50.186;27.062;2022-08-19T01:27:44;10.85;;;7.53;;
25838;SDS011;13669;50.186;27.062;2022-08-19T01:30:33;10.85;;;7.35;;
25838;SDS011;13669;50.186;27.062;2022-08-19T01:33:02;10.45;;;6.55;;
25838;SDS011;13669;50.186;27.062;2022-08-19T01:35:32;7.30;;;6.03;;
25838;SDS011;13669;50.186;27.062;2022-08-19T01:38:06;7.05;;;5.47;;
25838;SDS011;13669;50.186;27.062;2022-08-19T01:40:36;7.55;;;5.38;;
25838;SDS011;13669;50.186;27.062;2022-08-19T01:43:06;10.43;;;5.38;;
25838;SDS011;13669;50.186;27.062;2022-08-19T01:45:33;7.32;;;4.80;;
25838;SDS011;13669;50.186;27.062;2022-08-19T01:48:02;10.52;;;5.13;;
25838;SDS011;13669;50.186;27.062;2022-08-19T01:50:31;8.68;;;5.38;;
25838;SDS011;13669;50.186;27.062;2022-08-19T01:53:01;8.30;;;5.63;;
25838;SDS011;13669;50.186;27.062;2022-08-19T01:55:34;9.23;;;6.00;;
25838;SDS011;13669;50.186;27.062;2022-08-19T01:58:08;11.48;;;6.35;;
25838;SDS011;13669;50.186;27.062;2022-08-19T02:00:39;12.00;;;6.35;;
25838;SDS011;13669;50.186;27.062;2022-08-19T02:03:07;8.73;;;6.28;;
25838;SDS011;13669;50.186;27.062;2022-08-19T02:05:36;10.02;;;6.88;;
25838;SDS011;13669;50.186;27.062;2022-08-19T02:08:04;11.65;;;6.95;;
25838;SDS011;13669;50.186;27.062;2022-08-19T02:10:32;18.25;;;8.55;;
25838;SDS011;13669;50.186;27.062;2022-08-19T02:12:59;12.65;;;7.38;;
25838;SDS011;13669;50.186;27.062;2022-08-19T02:15:27;17.83;;;8.57;;
25838;SDS011;13669;50.186;27.062;2022-08-19T02:17:55;14.95;;;8.05;;
25838;SDS011;13669;50.186;27.062;2022-08-19T02:20:22;11.30;;;7.50;;
25838;SDS011;13669;50.186;27.062;2022-08-19T02:22:50;14.32;;;8.35;;
25838;SDS011;13669;50.186;27.062;2022-08-19T02:25:18;11.68;;;7.93;;
25838;SDS011;13669;50.186;27.062;2022-08-19T02:27:46;13.60;;;7.47;;
25838;SDS011;13669;50.186;27.062;2022-08-19T02:30:16;16.80;;;7.82;;
25838;SDS011;13669;50.186;27.062;2022-08-19T02:32:44;12.23;;;6.80;;
25838;SDS011;13669;50.186;27.062;2022-08-19T02:35:12;11.52;;;7.30;;
25838;SDS011;13669;50.186;27.062;2022-08-19T02:37:41;12.93;;;7.15;;
25838;SDS011;13669;50.186;27.062;2022-08-19T02:40:27;12.15;;;6.88;;
25838;SDS011;13669;50.186;27.062;2022-08-19T02:42:56;12.70;;;6.50;;
25838;SDS011;13669;50.186;27.062;2022-08-19T02:45:24;14.35;;;8.52;;
25838;SDS011;13669;50.186;27.062;2022-08-19T02:47:51;13.93;;;8.43;;
25838;SDS011;13669;50.186;27.062;2022-08-19T02:50:19;11.80;;;7.25;;
25838;SDS011;13669;50.186;27.062;2022-08-19T02:52:47;13.32;;;7.05;;
25838;SDS011;13669;50.186;27.062;2022-08-19T02:55:14;14.07;;;7.05;;
25838;SDS011;13669;50.186;27.062;2022-08-19T02:57:42;12.82;;;6.85;;
25838;SDS011;13669;50.186;27.062;2022-08-19T03:00:10;12.45;;;6.55;;
25838;SDS011;13669;50.186;27.062;2022-08-19T03:02:40;9.73;;;6.15;;
25838;SDS011;13669;50.186;27.062;2022-08-19T03:05:09;16.77;;;9.52;;
25838;SDS011;13669;50.186;27.062;2022-08-19T03:07:37;14.18;;;7.10;;
25838;SDS011;13669;50.186;27.062;2022-08-19T03:10:05;15.18;;;6.55;;
25838;SDS011;13669;50.186;27.062;2022-08-19T03:12:36;14.38;;;7.40;;
25838;SDS011;13669;50.186;27.062;2022-08-19T03:15:06;17.15;;;6.82;;
25838;SDS011;13669;50.186;27.062;2022-08-19T03:17:34;11.18;;;6.90;;
25838;SDS011;13669;50.186;27.062;2022-08-19T03:20:02;13.73;;;6.43;;
25838;SDS011;13669;50.186;27.062;2022-08-19T03:22:31;10.90;;;6.65;;
25838;SDS011;13669;50.186;27.062;2022-08-19T03:24:58;13.95;;;6.72;;
25838;SDS011;13669;50.186;27.062;2022-08-19T03:27:26;13.38;;;7.20;;
25838;SDS011;13669;50.186;27.062;2022-08-19T03:30:00;11.02;;;6.45;;
25838;SDS011;13669;50.186;27.062;2022-08-19T03:32:28;12.30;;;7.13;;
25838;SDS011;13669;50.186;27.062;2022-08-19T03:34:59;11.77;;;6.78;;
25838;SDS011;13669;50.186;27.062;2022-08-19T03:37:26;15.50;;;7.68;;
25838;SDS011;13669;50.186;27.062;2022-08-19T03:39:55;15.20;;;7.13;;
25838;SDS011;13669;50.186;27.062;2022-08-19T03:42:22;11.73;;;6.55;;
25838;SDS011;13669;50.186;27.062;2022-08-19T03:44:59;10.18;;;6.50;;
25838;SDS011;13669;50.186;27.062;2022-08-19T03:47:26;11.82;;;6.85;;
25838;SDS011;13669;50.186;27.062;2022-08-19T03:49:54;10.20;;;6.32;;
25838;SDS011;13669;50.186;27.062;2022-08-19T03:52:22;10.30;;;6.57;;
25838;SDS011;13669;50.186;27.062;2022-08-19T03:54:49;11.23;;;6.60;;
25838;SDS011;13669;50.186;27.062;2022-08-19T03:57:17;10.23;;;6.55;;
25838;SDS011;13669;50.186;27.062;2022-08-19T03:59:44;8.05;;;6.10;;
25838;SDS011;13669;50.186;27.062;2022-08-19T04:02:12;14.00;;;6.80;;
25838;SDS011;13669;50.186;27.062;2022-08-19T04:04:41;11.18;;;6.57;;
25838;SDS011;13669;50.186;27.062;2022-08-19T04:07:11;9.17;;;7.20;;
25838;SDS011;13669;50.186;27.062;2022-08-19T04:09:42;18.73;;;7.32;;
25838;SDS011;13669;50.186;27.062;2022-08-19T04:12:10;17.85;;;7.07;;
25838;SDS011;13669;50.186;27.062;2022-08-19T04:14:37;22.85;;;7.75;;
25838;SDS011;13669;50.186;27.062;2022-08-19T04:17:06;12.82;;;7.35;;
25838;SDS011;13669;50.186;27.062;2022-08-19T04:19:34;15.73;;;7.60;;
25838;SDS011;13669;50.186;27.062;2022-08-19T04:22:02;23.17;;;9.15;;
25838;SDS011;13669;50.186;27.062;2022-08-19T04:24:31;12.98;;;8.32;;
25838;SDS011;13669;50.186;27.062;2022-08-19T04:26:59;16.20;;;10.45;;
25838;SDS011;13669;50.186;27.062;2022-08-19T04:29:28;16.05;;;11.05;;
25838;SDS011;13669;50.186;27.062;2022-08-19T04:31:57;19.38;;;13.20;;
25838;SDS011;13669;50.186;27.062;2022-08-19T04:34:34;20.10;;;12.18;;
25838;SDS011;13669;50.186;27.062;2022-08-19T04:37:22;18.13;;;10.20;;
25838;SDS011;13669;50.186;27.062;2022-08-19T04:39:49;14.90;;;9.30;;
25838;SDS011;13669;50.186;27.062;2022-08-19T04:42:35;21.40;;;9.63;;
25838;SDS011;13669;50.186;27.062;2022-08-19T04:45:06;15.25;;;9.15;;
25838;SDS011;13669;50.186;27.062;2022-08-19T04:47:39;11.80;;;7.70;;
25838;SDS011;13669;50.186;27.062;2022-08-19T04:50:18;12.63;;;6.75;;
25838;SDS011;13669;50.186;27.062;2022-08-19T04:52:45;12.55;;;7.57;;
25838;SDS011;13669;50.186;27.062;2022-08-19T04:55:13;15.00;;;7.22;;
25838;SDS011;13669;50.186;27.062;2022-08-19T04:57:41;16.25;;;6.80;;
25838;SDS011;13669;50.186;27.062;2022-08-19T05:00:09;15.02;;;6.70;;
25838;SDS011;13669;50.186;27.062;2022-08-19T05:02:37;18.17;;;6.75;;
25838;SDS011;13669;50.186;27.062;2022-08-19T05:05:05;13.68;;;6.30;;
25838;SDS011;13669;50.186;27.062;2022-08-19T05:07:33;12.20;;;6.97;;
25838;SDS011;13669;50.186;27.062;2022-08-19T05:10:02;11.23;;;6.65;;
25838;SDS011;13669;50.186;27.062;2022-08-19T05:12:31;13.43;;;6.90;;
25838;SDS011;13669;50.186;27.062;2022-08-19T05:14:59;11.70;;;6.97;;
25838;SDS011;13669;50.186;27.062;2022-08-19T05:17:28;22.10;;;7.45;;
25838;SDS011;13669;50.186;27.062;2022-08-19T05:20:04;11.07;;;6.65;;
25838;SDS011;13669;50.186;27.062;2022-08-19T05:22:51;11.07;;;7.00;;
25838;SDS011;13669;50.186;27.062;2022-08-19T05:25:19;14.18;;;7.28;;
25838;SDS011;13669;50.186;27.062;2022-08-19T05:27:48;14.65;;;7.18;;
25838;SDS011;13669;50.186;27.062;2022-08-19T05:30:16;15.55;;;6.93;;
25838;SDS011;13669;50.186;27.062;2022-08-19T05:32:45;16.73;;;7.20;;
25838;SDS011;13669;50.186;27.062;2022-08-19T05:35:13;14.02;;;6.57;;
25838;SDS011;13669;50.186;27.062;2022-08-19T05:37:41;16.13;;;6.20;;
25838;SDS011;13669;50.186;27.062;2022-08-19T05:40:09;15.20;;;6.63;;
25838;SDS011;13669;50.186;27.062;2022-08-19T05:42:37;13.52;;;7.55;;
25838;SDS011;13669;50.186;27.062;2022-08-19T05:45:05;12.57;;;7.00;;
25838;SDS011;13669;50.186;27.062;2022-08-19T05:47:34;11.48;;;5.85;;
25838;SDS011;13669;50.186;27.062;2022-08-19T05:50:08;13.80;;;6.40;;
25838;SDS011;13669;50.186;27.062;2022-08-19T05:52:36;14.52;;;6.60;;
25838;SDS011;13669;50.186;27.062;2022-08-19T05:55:15;11.50;;;6.27;;
25838;SDS011;13669;50.186;27.062;2022-08-19T05:57:43;15.48;;;6.40;;
25838;SDS011;13669;50.186;27.062;2022-08-19T06:00:11;10.82;;;6.28;;
25838;SDS011;13669;50.186;27.062;2022-08-19T06:02:40;8.05;;;5.65;;
25838;SDS011;13669;50.186;27.062;2022-08-19T06:05:07;14.60;;;6.55;;
25838;SDS011;13669;50.186;27.062;2022-08-19T06:07:36;13.55;;;6.05;;
25838;SDS011;13669;50.186;27.062;2022-08-19T06:10:06;11.20;;;6.03;;
25838;SDS011;13669;50.186;27.062;2022-08-19T06:12:36;14.48;;;6.10;;
25838;SDS011;13669;50.186;27.062;2022-08-19T06:15:09;14.02;;;6.30;;
25838;SDS011;13669;50.186;27.062;2022-08-19T06:17:38;15.68;;;6.55;;
25838;SDS011;13669;50.186;27.062;2022-08-19T06:20:09;13.00;;;6.18;;
25838;SDS011;13669;50.186;27.062;2022-08-19T06:22:44;15.55;;;6.38;;
25838;SDS011;13669;50.186;27.062;2022-08-19T06:25:16;12.05;;;5.85;;
25838;SDS011;13669;50.186;27.062;2022-08-19T06:27:45;20.65;;;8.30;;
25838;SDS011;13669;50.186;27.062;2022-08-19T06:30:32;11.30;;;5.93;;
25838;SDS011;13669;50.186;27.062;2022-08-19T06:33:00;15.82;;;6.53;;
25838;SDS011;13669;50.186;27.062;2022-08-19T06:35:27;15.00;;;6.50;;
25838;SDS011;13669;50.186;27.062;2022-08-19T06:37:56;13.20;;;6.05;;
25838;SDS011;13669;50.186;27.062;2022-08-19T06:40:24;11.00;;;6.03;;
25838;SDS011;13669;50.186;27.062;2022-08-19T06:42:53;17.25;;;5.80;;
25838;SDS011;13669;50.186;27.062;2022-08-19T06:45:23;13.52;;;6.20;;
25838;SDS011;13669;50.186;27.062;2022-08-19T06:48:02;13.27;;;6.28;;
25838;SDS011;13669;50.186;27.062;2022-08-19T06:50:29;12.38;;;6.63;;
25838;SDS011;13669;50.186;27.062;2022-08-19T06:52:57;16.20;;;7.55;;
25838;SDS011;13669;50.186;27.062;2022-08-19T06:55:30;18.13;;;8.13;;
25838;SDS011;13669;50.186;27.062;2022-08-19T06:58:01;12.73;;;7.45;;
25838;SDS011;13669;50.186;27.062;2022-08-19T07:00:30;13.40;;;6.75;;
25838;SDS011;13669;50.186;27.062;2022-08-19T07:02:58;9.77;;;6.78;;
25838;SDS011;13669;50.186;27.062;2022-08-19T07:05:40;12.32;;;6.10;;
25838;SDS011;13669;50.186;27.062;2022-08-19T07:08:12;12.60;;;5.82;;
25838;SDS011;13669;50.186;27.062;2022-08-19T07:10:44;10.82;;;5.00;;
25838;SDS011;13669;50.186;27.062;2022-08-19T07:13:13;10.50;;;4.90;;
25838;SDS011;13669;50.186;27.062;2022-08-19T07:15:41;15.35;;;4.80;;
25838;SDS011;13669;50.186;27.062;2022-08-19T07:18:10;11.68;;;5.15;;
25838;SDS011;13669;50.186;27.062;2022-08-19T07:20:38;11.98;;;4.75;;
25838;SDS011;13669;50.186;27.062;2022-08-19T07:23:07;9.43;;;5.65;;
25838;SDS011;13669;50.186;27.062;2022-08-19T07:25:42;11.30;;;5.28;;
25838;SDS011;13669;50.186;27.062;2022-08-19T07:28:18;10.65;;;5.32;;
25838;SDS011;13669;50.186;27.062;2022-08-19T07:30:50;10.45;;;5.85;;
25838;SDS011;13669;50.186;27.062;2022-08-19T07:33:19;12.57;;;4.50;;
25838;SDS011;13669;50.186;27.062;2022-08-19T07:35:47;9.95;;;4.65;;
25838;SDS011;13669;50.186;27.062;2022-08-19T07:38:16;13.23;;;4.25;;
25838;SDS011;13669;50.186;27.062;2022-08-19T07:40:44;13.63;;;5.75;;
25838;SDS011;13669;50.186;27.062;2022-08-19T07:43:13;11.05;;;5.30;;
25838;SDS011;13669;50.186;27.062;2022-08-19T07:48:11;8.15;;;4.25;;
25838;SDS011;13669;50.186;27.062;2022-08-19T07:50:39;5.55;;;3.58;;
25838;SDS011;13669;50.186;27.062;2022-08-19T07:53:07;11.27;;;4.65;;
25838;SDS011;13669;50.186;27.062;2022-08-19T07:55:34;16.75;;;4.28;;
25838;SDS011;13669;50.186;27.062;2022-08-19T07:58:09;10.80;;;4.55;;
25838;SDS011;13669;50.186;27.062;2022-08-19T08:00:38;8.98;;;4.35;;
25838;SDS011;13669;50.186;27.062;2022-08-19T08:03:06;12.50;;;4.45;;
25838;SDS011;13669;50.186;27.062;2022-08-19T08:05:35;14.93;;;4.28;;
25838;SDS011;13669;50.186;27.062;2022-08-19T08:08:21;12.50;;;3.78;;
25838;SDS011;13669;50.186;27.062;2022-08-19T08:11:14;9.85;;;3.90;;
25838;SDS011;13669;50.186;27.062;2022-08-19T08:13:45;12.25;;;4.28;;
25838;SDS011;13669;50.186;27.062;2022-08-19T08:16:33;10.70;;;4.28;;
25838;SDS011;13669;50.186;27.062;2022-08-19T08:19:12;10.75;;;4.57;;
25838;SDS011;13669;50.186;27.062;2022-08-19T08:21:51;12.65;;;4.68;;
25838;SDS011;13669;50.186;27.062;2022-08-19T08:24:24;9.35;;;4.60;;
25838;SDS011;13669;50.186;27.062;2022-08-19T08:26:54;10.68;;;4.22;;
25838;SDS011;13669;50.186;27.062;2022-08-19T08:29:23;10.27;;;4.93;;
25838;SDS011;13669;50.186;27.062;2022-08-19T08:31:51;17.73;;;4.95;;
25838;SDS011;13669;50.186;27.062;2022-08-19T08:34:25;11.77;;;5.55;;
25838;SDS011;13669;50.186;27.062;2022-08-19T08:36:53;12.77;;;5.38;;
25838;SDS011;13669;50.186;27.062;2022-08-19T08:39:21;10.45;;;5.20;;
25838;SDS011;13669;50.186;27.062;2022-08-19T08:41:51;8.30;;;4.50;;
25838;SDS011;13669;50.186;27.062;2022-08-19T08:44:59;12.25;;;4.47;;
25838;SDS011;13669;50.186;27.062;2022-08-19T08:47:36;8.45;;;4.40;;
25838;SDS011;13669;50.186;27.062;2022-08-19T08:50:09;10.50;;;4.63;;
25838;SDS011;13669;50.186;27.062;2022-08-19T08:52:46;14.23;;;5.65;;
25838;SDS011;13669;50.186;27.062;2022-08-19T08:55:21;10.40;;;4.60;;
25838;SDS011;13669;50.186;27.062;2022-08-19T09:00:33;9.10;;;4.65;;
25838;SDS011;13669;50.186;27.062;2022-08-19T09:03:06;8.50;;;4.10;;
25838;SDS011;13669;50.186;27.062;2022-08-19T09:06:03;13.20;;;4.45;;
25838;SDS011;13669;50.186;27.062;2022-08-19T09:17:16;18.30;;;4.10;;
25838;SDS011;13669;50.186;27.062;2022-08-19T09:19:53;12.00;;;4.25;;
25838;SDS011;13669;50.186;27.062;2022-08-19T09:22:23;13.85;;;3.83;;
25838;SDS011;13669;50.186;27.062;2022-08-19T09:24:53;11.60;;;3.40;;
25838;SDS011;13669;50.186;27.062;2022-08-19T09:27:21;15.32;;;4.90;;
25838;SDS011;13669;50.186;27.062;2022-08-19T09:30:10;11.13;;;3.25;;
25838;SDS011;13669;50.186;27.062;2022-08-19T09:32:41;8.27;;;3.03;;
25838;SDS011;13669;50.186;27.062;2022-08-19T09:35:10;14.32;;;3.10;;
25838;SDS011;13669;50.186;27.062;2022-08-19T09:37:39;8.48;;;3.30;;
25838;SDS011;13669;50.186;27.062;2022-08-19T09:40:10;11.57;;;3.33;;
25838;SDS011;13669;50.186;27.062;2022-08-19T09:42:39;7.82;;;2.70;;
25838;SDS011;13669;50.186;27.062;2022-08-19T09:45:17;9.18;;;3.05;;
25838;SDS011;13669;50.186;27.062;2022-08-19T09:47:48;11.52;;;3.45;;
25838;SDS011;13669;50.186;27.062;2022-08-19T09:50:20;8.52;;;2.60;;
25838;SDS011;13669;50.186;27.062;2022-08-19T09:52:49;8.75;;;2.90;;
25838;SDS011;13669;50.186;27.062;2022-08-19T09:55:23;10.25;;;2.95;;
25838;SDS011;13669;50.186;27.062;2022-08-19T09:57:59;9.05;;;3.00;;
25838;SDS011;13669;50.186;27.062;2022-08-19T10:00:28;10.10;;;3.83;;
25838;SDS011;13669;50.186;27.062;2022-08-19T10:02:56;10.35;;;2.88;;
25838;SDS011;13669;50.186;27.062;2022-08-19T10:05:24;12.52;;;2.95;;
25838;SDS011;13669;50.186;27.062;2022-08-19T10:08:28;8.15;;;2.85;;
25838;SDS011;13669;50.186;27.062;2022-08-19T10:10:58;8.13;;;2.70;;
25838;SDS011;13669;50.186;27.062;2022-08-19T10:13:46;11.52;;;2.85;;
25838;SDS011;13669;50.186;27.062;2022-08-19T10:16:16;7.75;;;2.40;;
25838;SDS011;13669;50.186;27.062;2022-08-19T10:18:46;11.00;;;2.63;;
25838;SDS011;13669;50.186;27.062;2022-08-19T10:23:45;8.13;;;2.72;;
25838;SDS011;13669;50.186;27.062;2022-08-19T10:26:18;9.63;;;2.83;;
25838;SDS011;13669;50.186;27.062;2022-08-19T10:28:52;9.85;;;2.72;;
25838;SDS011;13669;50.186;27.062;2022-08-19T10:31:27;5.90;;;2.40;;
25838;SDS011;13669;50.186;27.062;2022-08-19T10:34:16;10.70;;;2.80;;
25838;SDS011;13669;50.186;27.062;2022-08-19T10:36:54;8.88;;;3.47;;
25838;SDS011;13669;50.186;27.062;2022-08-19T10:39:30;33.83;;;4.22;;
25838;SDS011;13669;50.186;27.062;2022-08-19T10:42:09;7.68;;;2.58;;
25838;SDS011;13669;50.186;27.062;2022-08-19T10:44:40;11.18;;;3.17;;
25838;SDS011;13669;50.186;27.062;2022-08-19T10:47:08;6.90;;;2.88;;
25838;SDS011;13669;50.186;27.062;2022-08-19T10:49:50;8.88;;;2.65;;
25838;SDS011;13669;50.186;27.062;2022-08-19T10:52:39;9.80;;;3.10;;
25838;SDS011;13669;50.186;27.062;2022-08-19T10:55:20;3.60;;;2.60;;
25838;SDS011;13669;50.186;27.062;2022-08-19T10:58:12;5.38;;;2.53;;
25838;SDS011;13669;50.186;27.062;2022-08-19T11:00:41;9.02;;;3.08;;
25838;SDS011;13669;50.186;27.062;2022-08-19T11:03:12;5.60;;;2.90;;
25838;SDS011;13669;50.186;27.062;2022-08-19T11:05:40;11.20;;;3.05;;
25838;SDS011;13669;50.186;27.062;2022-08-19T11:08:08;11.00;;;2.78;;
25838;SDS011;13669;50.186;27.062;2022-08-19T11:10:50;9.07;;;2.55;;
25838;SDS011;13669;50.186;27.062;2022-08-19T11:13:20;6.57;;;2.83;;
25838;SDS011;13669;50.186;27.062;2022-08-19T11:15:56;7.07;;;2.60;;
25838;SDS011;13669;50.186;27.062;2022-08-19T11:18:30;7.50;;;2.97;;
25838;SDS011;13669;50.186;27.062;2022-08-19T11:21:05;5.65;;;2.50;;
25838;SDS011;13669;50.186;27.062;2022-08-19T11:23:34;8.77;;;2.70;;
25838;SDS011;13669;50.186;27.062;2022-08-19T11:26:02;7.28;;;2.45;;
25838;SDS011;13669;50.186;27.062;2022-08-19T11:28:30;9.30;;;2.65;;
25838;SDS011;13669;50.186;27.062;2022-08-19T11:30:57;11.27;;;2.40;;
25838;SDS011;13669;50.186;27.062;2022-08-19T11:33:25;11.07;;;2.58;;
25838;SDS011;13669;50.186;27.062;2022-08-19T11:35:53;26.05;;;3.10;;
25838;SDS011;13669;50.186;27.062;2022-08-19T11:38:21;6.22;;;2.60;;
25838;SDS011;13669;50.186;27.062;2022-08-19T11:40:55;10.05;;;2.30;;
25838;SDS011;13669;50.186;27.062;2022-08-19T11:43:27;8.68;;;2.72;;
25838;SDS011;13669;50.186;27.062;2022-08-19T11:46:08;10.38;;;2.75;;
25838;SDS011;13669;50.186;27.062;2022-08-19T11:48:38;9.68;;;2.28;;
25838;SDS011;13669;50.186;27.062;2022-08-19T11:51:15;8.57;;;2.67;;
25838;SDS011;13669;50.186;27.062;2022-08-19T11:53:48;7.60;;;2.38;;
25838;SDS011;13669;50.186;27.062;2022-08-19T11:56:17;6.05;;;2.03;;
25838;SDS011;13669;50.186;27.062;2022-08-19T11:58:46;6.33;;;2.33;;
25838;SDS011;13669;50.186;27.062;2022-08-19T12:01:15;8.65;;;2.42;;
25838;SDS011;13669;50.186;27.062;2022-08-19T12:03:45;10.43;;;2.47;;
25838;SDS011;13669;50.186;27.062;2022-08-19T12:06:15;12.23;;;2.60;;
25838;SDS011;13669;50.186;27.062;2022-08-19T12:08:52;5.68;;;2.25;;
25838;SDS011;13669;50.186;27.062;2022-08-19T12:11:20;7.22;;;2.28;;
25838;SDS011;13669;50.186;27.062;2022-08-19T12:13:48;8.55;;;2.28;;
25838;SDS011;13669;50.186;27.062;2022-08-19T12:16:26;6.65;;;2.40;;
25838;SDS011;13669;50.186;27.062;2022-08-19T12:18:55;6.13;;;2.25;;
25838;SDS011;13669;50.186;27.062;2022-08-19T12:21:26;5.53;;;2.40;;
25838;SDS011;13669;50.186;27.062;2022-08-19T12:23:57;7.35;;;2.45;;
25838;SDS011;13669;50.186;27.062;2022-08-19T12:26:26;8.63;;;2.53;;
25838;SDS011;13669;50.186;27.062;2022-08-19T12:28:55;12.15;;;2.50;;
25838;SDS011;13669;50.186;27.062;2022-08-19T12:31:26;10.15;;;2.47;;
25838;SDS011;13669;50.186;27.062;2022-08-19T12:33:55;9.65;;;2.40;;
25838;SDS011;13669;50.186;27.062;2022-08-19T12:36:23;7.82;;;2.72;;
25838;SDS011;13669;50.186;27.062;2022-08-19T12:38:51;6.97;;;2.40;;
25838;SDS011;13669;50.186;27.062;2022-08-19T12:41:20;6.75;;;2.53;;
25838;SDS011;13669;50.186;27.062;2022-08-19T12:43:56;8.17;;;2.70;;
25838;SDS011;13669;50.186;27.062;2022-08-19T12:46:29;6.07;;;2.17;;
25838;SDS011;13669;50.186;27.062;2022-08-19T12:48:59;3.53;;;2.22;;
25838;SDS011;13669;50.186;27.062;2022-08-19T12:51:34;7.15;;;2.30;;
25838;SDS011;13669;50.186;27.062;2022-08-19T12:54:02;9.52;;;2.53;;
25838;SDS011;13669;50.186;27.062;2022-08-19T12:56:31;5.57;;;2.40;;
25838;SDS011;13669;50.186;27.062;2022-08-19T12:59:03;6.70;;;2.67;;
25838;SDS011;13669;50.186;27.062;2022-08-19T13:01:31;6.80;;;2.42;;
25838;SDS011;13669;50.186;27.062;2022-08-19T13:03:59;4.90;;;2.72;;
25838;SDS011;13669;50.186;27.062;2022-08-19T13:06:27;10.10;;;2.55;;
25838;SDS011;13669;50.186;27.062;2022-08-19T13:08:54;6.00;;;2.50;;
25838;SDS011;13669;50.186;27.062;2022-08-19T13:11:25;5.78;;;2.38;;
25838;SDS011;13669;50.186;27.062;2022-08-19T13:13:53;5.55;;;2.30;;
25838;SDS011;13669;50.186;27.062;2022-08-19T13:16:22;6.13;;;2.55;;
25838;SDS011;13669;50.186;27.062;2022-08-19T13:18:50;10.20;;;3.08;;
25838;SDS011;13669;50.186;27.062;2022-08-19T13:21:19;8.93;;;2.30;;
25838;SDS011;13669;50.186;27.062;2022-08-19T13:23:48;4.85;;;2.33;;
25838;SDS011;13669;50.186;27.062;2022-08-19T13:26:17;5.05;;;2.30;;
25838;SDS011;13669;50.186;27.062;2022-08-19T13:28:45;8.45;;;2.25;;
25838;SDS011;13669;50.186;27.062;2022-08-19T13:31:32;15.90;;;2.70;;
25838;SDS011;13669;50.186;27.062;2022-08-19T13:34:25;9.40;;;2.60;;
25838;SDS011;13669;50.186;27.062;2022-08-19T13:36:57;5.82;;;2.58;;
25838;SDS011;13669;50.186;27.062;2022-08-19T13:39:26;5.70;;;2.30;;
25838;SDS011;13669;50.186;27.062;2022-08-19T13:41:54;8.95;;;2.30;;
25838;SDS011;13669;50.186;27.062;2022-08-19T13:44:21;9.70;;;2.67;;
25838;SDS011;13669;50.186;27.062;2022-08-19T13:46:49;14.25;;;2.90;;
25838;SDS011;13669;50.186;27.062;2022-08-19T13:49:20;7.88;;;2.22;;
25838;SDS011;13669;50.186;27.062;2022-08-19T13:51:48;7.85;;;2.47;;
25838;SDS011;13669;50.186;27.062;2022-08-19T13:54:15;10.50;;;2.92;;
25838;SDS011;13669;50.186;27.062;2022-08-19T13:56:44;9.40;;;2.58;;
25838;SDS011;13669;50.186;27.062;2022-08-19T13:59:12;8.40;;;2.60;;
25838;SDS011;13669;50.186;27.062;2022-08-19T14:01:39;14.25;;;2.50;;
25838;SDS011;13669;50.186;27.062;2022-08-19T14:04:08;10.48;;;3.25;;
25838;SDS011;13669;50.186;27.062;2022-08-19T14:06:35;6.57;;;2.38;;
25838;SDS011;13669;50.186;27.062;2022-08-19T14:09:03;7.10;;;2.90;;
25838;SDS011;13669;50.186;27.062;2022-08-19T14:11:32;8.10;;;3.30;;
25838;SDS011;13669;50.186;27.062;2022-08-19T14:14:00;11.38;;;3.10;;
25838;SDS011;13669;50.186;27.062;2022-08-19T14:16:27;12.07;;;3.63;;
25838;SDS011;13669;50.186;27.062;2022-08-19T14:18:57;9.70;;;3.20;;
25838;SDS011;13669;50.186;27.062;2022-08-19T14:21:25;8.60;;;2.78;;
25838;SDS011;13669;50.186;27.062;2022-08-19T14:23:53;7.80;;;2.90;;
25838;SDS011;13669;50.186;27.062;2022-08-19T14:26:21;8.32;;;2.65;;
25838;SDS011;13669;50.186;27.062;2022-08-19T14:28:50;8.40;;;2.33;;
25838;SDS011;13669;50.186;27.062;2022-08-19T14:31:18;26.27;;;3.28;;
25838;SDS011;13669;50.186;27.062;2022-08-19T14:33:47;21.00;;;3.55;;
25838;SDS011;13669;50.186;27.062;2022-08-19T14:36:15;9.48;;;2.80;;
25838;SDS011;13669;50.186;27.062;2022-08-19T14:38:43;3.75;;;2.30;;
25838;SDS011;13669;50.186;27.062;2022-08-19T14:41:18;5.82;;;2.58;;
25838;SDS011;13669;50.186;27.062;2022-08-19T14:43:47;7.55;;;2.80;;
25838;SDS011;13669;50.186;27.062;2022-08-19T14:46:17;10.57;;;2.97;;
25838;SDS011;13669;50.186;27.062;2022-08-19T14:48:51;7.75;;;2.70;;
25838;SDS011;13669;50.186;27.062;2022-08-19T14:51:19;8.85;;;2.85;;
25838;SDS011;13669;50.186;27.062;2022-08-19T14:53:48;8.50;;;2.65;;
25838;SDS011;13669;50.186;27.062;2022-08-19T14:56:17;13.30;;;2.80;;
25838;SDS011;13669;50.186;27.062;2022-08-19T14:58:47;12.55;;;2.83;;
25838;SDS011;13669;50.186;27.062;2022-08-19T15:01:19;7.03;;;2.70;;
25838;SDS011;13669;50.186;27.062;2022-08-19T15:06:20;8.70;;;3.22;;
25838;SDS011;13669;50.186;27.062;2022-08-19T15:08:49;7.57;;;3.25;;
25838;SDS011;13669;50.186;27.062;2022-08-19T15:11:19;12.77;;;3.37;;